Time;durP1;ratioP1;P1;durP2;ratioP2;P2;SDS_P1;SDS_P2;PMS_P1;PMS_P2;Temp;Humidity;BMP_temperature;BMP_pressure;BME280_temperature;BME280_humidity;BME280_pressure;Samples;Min_cycle;Max_cycle;Signal;HPM_P1;HPM_P2
2020/12/24 00:01:19;;;;;;;3.60;0.25;;;9.50;99.90;;;;;;5090368;28;20120;-75
2020/12/24 00:03:45;;;;;;;4.20;0.28;;;9.50;99.90;;;;;;5091044;28;20079;-73
2020/12/24 00:06:11;;;;;;;2.67;0.50;;;9.50;99.90;;;;;;5091147;28;20064;-70
2020/12/24 00:08:36;;;;;;;0.60;0.30;;;9.50;99.90;;;;;;5090463;28;20032;-72
2020/12/24 00:11:03;;;;;;;2.75;0.22;;;9.60;99.90;;;;;;5091257;28;20109;-70
2020/12/24 00:13:29;;;;;;;0.47;0.20;;;9.70;99.40;;;;;;5090238;28;20034;-72
2020/12/24 00:15:54;;;;;;;1.27;0.30;;;9.80;96.90;;;;;;5073202;28;20096;-70
2020/12/24 00:18:20;;;;;;;0.73;0.30;;;9.80;97.50;;;;;;5090655;28;20205;-72
2020/12/24 00:20:47;;;;;;;2.78;0.30;;;9.70;98.00;;;;;;5090858;28;20021;-72
2020/12/24 00:23:12;;;;;;;0.40;0.20;;;9.70;96.50;;;;;;5090911;28;20028;-71
2020/12/24 00:25:39;;;;;;;2.20;0.30;;;9.70;96.00;;;;;;5090188;28;20103;-71
2020/12/24 00:28:06;;;;;;;0.20;0.20;;;9.70;93.50;;;;;;5090983;28;20465;-74
2020/12/24 00:30:31;;;;;;;0.50;0.10;;;9.80;92.50;;;;;;5090056;28;20028;-76
2020/12/24 00:32:57;;;;;;;0.95;0.22;;;9.80;93.40;;;;;;5090943;28;20054;-80
2020/12/24 00:35:23;;;;;;;1.33;0.30;;;9.80;92.30;;;;;;5072065;28;20036;-73
2020/12/24 00:37:48;;;;;;;0.30;0.15;;;9.80;92.40;;;;;;5091350;28;20028;-71
2020/12/24 00:40:14;;;;;;;1.63;0.30;;;9.70;91.80;;;;;;5090690;28;20024;-80
2020/12/24 00:42:40;;;;;;;0.68;0.20;;;9.80;92.20;;;;;;5093558;28;20072;-74
2020/12/24 00:45:05;;;;;;;2.33;0.35;;;9.70;93.60;;;;;;5076258;28;20412;-72
2020/12/24 00:47:31;;;;;;;1.63;0.30;;;9.70;93.80;;;;;;5094126;28;20165;-73
2020/12/24 00:49:56;;;;;;;0.88;0.35;;;9.60;91.80;;;;;;5094798;28;20462;-71
2020/12/24 00:52:22;;;;;;;0.65;0.28;;;9.60;95.50;;;;;;5093710;28;20032;-72
2020/12/24 00:54:48;;;;;;;1.10;0.57;;;9.50;96.90;;;;;;5094437;28;20024;-69
2020/12/24 00:57:13;;;;;;;0.88;0.38;;;9.30;99.80;;;;;;5076463;28;20028;-78
2020/12/24 00:59:39;;;;;;;2.55;0.30;;;9.20;97.40;;;;;;5094537;28;20035;-69
2020/12/24 01:02:05;;;;;;;1.67;0.20;;;9.20;99.90;;;;;;5095293;28;20031;-75
2020/12/24 01:04:30;;;;;;;1.98;0.50;;;9.10;98.00;;;;;;5094222;28;20103;-72
2020/12/24 01:06:56;;;;;;;0.10;0.10;;;9.10;99.90;;;;;;5083059;28;20036;-75
2020/12/24 01:09:22;;;;;;;0.10;0.10;;;9.00;99.90;;;;;;5073539;28;20024;-72
2020/12/24 01:11:48;;;;;;;1.95;0.25;;;9.00;99.90;;;;;;5074208;28;20202;-67
2020/12/24 01:14:13;;;;;;;6.40;0.82;;;8.90;99.90;;;;;;5073752;28;20078;-82
2020/12/24 01:16:39;;;;;;;1.85;0.30;;;8.80;99.90;;;;;;5073526;28;20035;-68
2020/12/24 01:19:05;;;;;;;1.83;0.40;;;8.70;99.90;;;;;;5073949;28;20090;-71
2020/12/24 01:21:31;;;;;;;0.93;0.40;;;8.60;99.90;;;;;;5073224;28;20123;-71
2020/12/24 01:23:56;;;;;;;2.35;0.90;;;8.40;99.90;;;;;;5073613;28;20048;-73
2020/12/24 01:26:22;;;;;;;1.73;0.30;;;8.30;99.90;;;;;;5073094;28;20036;-73
2020/12/24 01:28:48;;;;;;;1.35;0.20;;;8.20;99.90;;;;;;5073580;28;20071;-67
2020/12/24 01:31:14;;;;;;;3.92;1.00;;;8.10;99.90;;;;;;5073536;28;20033;-81
2020/12/24 01:33:39;;;;;;;1.38;0.38;;;8.10;99.90;;;;;;5073447;28;20500;-66
2020/12/24 01:36:05;;;;;;;1.10;0.50;;;8.00;99.90;;;;;;5073748;28;20029;-75
2020/12/24 01:38:31;;;;;;;2.65;0.50;;;7.90;99.90;;;;;;5073194;28;20021;-77
2020/12/24 01:41:02;;;;;;;1.88;0.30;;;7.90;99.90;;;;;;5073724;28;20036;-73
2020/12/24 01:43:28;;;;;;;0.85;0.40;;;7.90;99.90;;;;;;5072646;28;20476;-75
2020/12/24 01:45:55;;;;;;;3.45;0.40;;;7.80;99.90;;;;;;5072879;28;20040;-78
2020/12/24 01:48:21;;;;;;;2.47;0.50;;;7.90;99.90;;;;;;5054883;28;20024;-75
2020/12/24 01:50:47;;;;;;;1.30;0.40;;;7.80;99.90;;;;;;5073537;28;20036;-71
2020/12/24 01:53:22;;;;;;;1.55;0.30;;;7.80;99.90;;;;;;5072369;28;20040;-79
2020/12/24 01:55:51;;;;;;;2.47;0.40;;;7.80;99.90;;;;;;5073804;28;20020;-71
2020/12/24 01:58:17;;;;;;;1.98;0.40;;;7.80;99.90;;;;;;5073267;28;20089;-77
2020/12/24 02:00:46;;;;;;;2.25;0.40;;;7.90;99.90;;;;;;5073763;28;20035;-73
2020/12/24 02:03:15;;;;;;;2.40;0.20;;;7.90;99.90;;;;;;5074359;28;20029;-73
2020/12/24 02:05:41;;;;;;;1.53;0.27;;;8.00;99.90;;;;;;5073663;28;20437;-80
2020/12/24 02:08:08;;;;;;;0.60;0.30;;;8.10;99.90;;;;;;5093055;28;20028;-74
2020/12/24 02:10:34;;;;;;;4.40;0.28;;;8.10;99.90;;;;;;5092510;28;20031;-68
2020/12/24 02:12:59;;;;;;;3.03;0.90;;;8.10;99.90;;;;;;5093641;28;20028;-72
2020/12/24 02:15:25;;;;;;;1.77;0.30;;;8.10;99.90;;;;;;5093137;28;20020;-74
2020/12/24 02:17:51;;;;;;;1.75;0.30;;;8.10;99.90;;;;;;5093407;28;20094;-70
2020/12/24 02:20:17;;;;;;;1.15;0.20;;;8.00;99.90;;;;;;5093007;28;20039;-80
2020/12/24 02:22:42;;;;;;;0.65;0.30;;;8.00;99.90;;;;;;5093893;28;20110;-72
2020/12/24 02:25:08;;;;;;;1.00;0.10;;;8.00;99.90;;;;;;5093055;28;20157;-73
2020/12/24 02:27:34;;;;;;;1.58;0.40;;;8.00;99.90;;;;;;5092603;28;20024;-72
2020/12/24 02:30:01;;;;;;;3.20;0.43;;;8.00;99.90;;;;;;5093238;28;20054;-71
2020/12/24 02:32:28;;;;;;;2.45;0.40;;;8.10;99.90;;;;;;5092683;28;20032;-71
2020/12/24 02:34:55;;;;;;;3.55;0.30;;;8.10;99.90;;;;;;5093458;28;20020;-79
2020/12/24 02:37:22;;;;;;;0.93;0.30;;;8.00;99.90;;;;;;5092871;28;20032;-79
2020/12/24 02:39:49;;;;;;;2.85;0.30;;;7.90;99.90;;;;;;5093267;28;20024;-77
2020/12/24 02:42:15;;;;;;;2.22;0.20;;;7.80;99.90;;;;;;5092816;28;20115;-80
2020/12/24 02:44:41;;;;;;;0.82;0.20;;;7.70;99.90;;;;;;5092708;28;20103;-71
2020/12/24 02:47:06;;;;;;;3.45;0.38;;;7.60;99.90;;;;;;5092679;28;20131;-72
2020/12/24 02:49:32;;;;;;;0.88;0.20;;;7.50;99.90;;;;;;5092000;28;20504;-70
2020/12/24 02:51:58;;;;;;;1.20;0.40;;;7.40;99.90;;;;;;5092429;28;20111;-71
2020/12/24 02:54:23;;;;;;;1.50;0.20;;;7.40;99.90;;;;;;5092296;28;20464;-70
2020/12/24 02:56:49;;;;;;;2.65;0.40;;;7.30;99.90;;;;;;5092725;28;20035;-71
2020/12/24 02:59:15;;;;;;;2.78;0.50;;;7.30;99.90;;;;;;5092667;28;20027;-79
2020/12/24 03:01:40;;;;;;;1.95;0.20;;;7.30;99.90;;;;;;5092194;28;20039;-72
2020/12/24 03:04:06;;;;;;;1.60;0.50;;;7.30;99.90;;;;;;5092391;28;20081;-73
2020/12/24 03:06:31;;;;;;;0.85;0.20;;;7.30;99.90;;;;;;5083465;28;20028;-71
2020/12/24 03:08:57;;;;;;;2.05;0.38;;;7.30;99.90;;;;;;5072211;28;20407;-65
2020/12/24 03:11:23;;;;;;;1.02;0.45;;;7.40;99.90;;;;;;5071573;28;20028;-73
2020/12/24 03:13:48;;;;;;;0.77;0.28;;;7.40;99.90;;;;;;5072131;28;20024;-72
2020/12/24 03:16:14;;;;;;;0.20;0.10;;;7.50;99.90;;;;;;5071991;28;20107;-81
2020/12/24 03:18:40;;;;;;;0.77;0.28;;;7.60;99.90;;;;;;5071766;28;20113;-68
2020/12/24 03:21:07;;;;;;;2.13;0.17;;;7.60;99.90;;;;;;5072482;28;20032;-70
2020/12/24 03:23:32;;;;;;;0.20;0.10;;;7.60;99.90;;;;;;5071358;28;20032;-72
2020/12/24 03:25:58;;;;;;;2.28;0.70;;;7.60;99.90;;;;;;5071642;28;20036;-73
2020/12/24 03:28:23;;;;;;;2.95;0.13;;;7.60;99.90;;;;;;5071373;28;20031;-72
2020/12/24 03:30:49;;;;;;;0.40;0.10;;;7.60;99.90;;;;;;5072288;28;20024;-65
2020/12/24 03:33:15;;;;;;;1.55;0.25;;;7.60;99.90;;;;;;5071567;28;20059;-79
2020/12/24 03:35:41;;;;;;;0.28;0.20;;;7.60;99.90;;;;;;5071503;28;20056;-68
2020/12/24 03:38:06;;;;;;;1.20;0.20;;;7.50;99.90;;;;;;5071964;28;20082;-72
2020/12/24 03:40:32;;;;;;;0.98;0.20;;;7.50;99.90;;;;;;5071082;28;20025;-69
2020/12/24 03:42:58;;;;;;;0.82;0.13;;;7.40;99.90;;;;;;5071721;28;20052;-72
2020/12/24 03:45:23;;;;;;;1.55;0.38;;;7.40;99.90;;;;;;5070993;28;20075;-72
2020/12/24 03:47:49;;;;;;;1.70;0.28;;;7.30;99.90;;;;;;5071710;28;20435;-72
2020/12/24 03:50:15;;;;;;;2.05;0.50;;;7.20;99.90;;;;;;5071572;28;20032;-75
2020/12/24 03:52:40;;;;;;;0.50;0.17;;;7.20;99.90;;;;;;5071204;28;20031;-71
2020/12/24 03:55:06;;;;;;;1.00;0.20;;;7.10;99.90;;;;;;5072082;28;20048;-72
2020/12/24 03:57:32;;;;;;;1.10;0.22;;;7.10;99.90;;;;;;5071042;28;20035;-77
2020/12/24 03:59:58;;;;;;;1.15;0.20;;;7.00;99.90;;;;;;5071425;28;20029;-70
2020/12/24 04:02:23;;;;;;;0.90;0.20;;;6.90;99.90;;;;;;5070975;28;20077;-71
2020/12/24 04:04:49;;;;;;;1.58;0.63;;;6.90;99.90;;;;;;5071227;28;20032;-71
2020/12/24 04:07:17;;;;;;;0.63;0.25;;;6.90;99.90;;;;;;5085216;28;20066;-70
2020/12/24 04:09:43;;;;;;;4.22;0.60;;;6.90;99.90;;;;;;5091661;28;20073;-77
2020/12/24 04:12:09;;;;;;;2.63;0.43;;;7.00;99.90;;;;;;5073518;28;20028;-70
2020/12/24 04:14:36;;;;;;;2.17;0.30;;;7.10;99.90;;;;;;5090792;28;20020;-76
2020/12/24 04:17:02;;;;;;;2.17;0.60;;;7.10;99.90;;;;;;5094024;28;20036;-72
2020/12/24 04:19:27;;;;;;;3.97;0.32;;;7.10;99.90;;;;;;5095064;28;20089;-79
2020/12/24 04:21:53;;;;;;;1.13;0.32;;;7.10;99.90;;;;;;5095960;28;20426;-71
2020/12/24 04:24:19;;;;;;;3.05;0.30;;;7.20;99.90;;;;;;5076920;28;20480;-79
2020/12/24 04:26:44;;;;;;;1.25;0.25;;;7.20;99.90;;;;;;5095492;28;20024;-66
2020/12/24 04:29:10;;;;;;;1.80;0.15;;;7.20;99.90;;;;;;5095745;28;20522;-70
2020/12/24 04:31:41;;;;;;;1.80;0.45;;;7.20;99.90;;;;;;5094822;28;20312;-73
2020/12/24 04:34:06;;;;;;;2.45;0.50;;;7.20;99.90;;;;;;5095317;28;20069;-78
2020/12/24 04:36:32;;;;;;;2.00;0.13;;;7.20;99.90;;;;;;5094883;28;20106;-72
2020/12/24 04:38:57;;;;;;;1.02;0.40;;;7.30;99.90;;;;;;5095194;28;20089;-70
2020/12/24 04:41:24;;;;;;;0.50;0.20;;;7.30;99.90;;;;;;5094688;28;20086;-72
2020/12/24 04:43:50;;;;;;;3.72;0.60;;;7.20;99.90;;;;;;5095529;28;20027;-71
2020/12/24 04:46:17;;;;;;;3.63;0.75;;;7.20;99.90;;;;;;5094842;28;20052;-71
2020/12/24 04:48:44;;;;;;;2.28;0.30;;;7.10;99.90;;;;;;5094633;28;20031;-71
2020/12/24 04:51:11;;;;;;;1.23;0.30;;;7.20;99.90;;;;;;5095371;28;20381;-70
2020/12/24 04:53:38;;;;;;;0.52;0.30;;;7.20;99.90;;;;;;5094489;28;20643;-71
2020/12/24 04:56:06;;;;;;;1.73;0.40;;;7.10;99.90;;;;;;5095030;28;20107;-77
2020/12/24 04:58:32;;;;;;;0.35;0.28;;;7.10;99.90;;;;;;5094692;28;20213;-73
2020/12/24 05:00:58;;;;;;;0.32;0.20;;;7.10;99.90;;;;;;5094908;28;20016;-71
2020/12/24 05:03:24;;;;;;;2.53;0.20;;;7.20;99.90;;;;;;5075813;28;20039;-73
2020/12/24 05:05:52;;;;;;;0.70;0.30;;;7.20;99.90;;;;;;5092683;28;20032;-71
2020/12/24 05:08:17;;;;;;;1.70;0.22;;;7.10;99.90;;;;;;5074347;28;20119;-80
2020/12/24 05:11:03;;;;;;;0.32;0.10;;;7.10;99.90;;;;;;5074158;28;20444;-66
2020/12/24 05:13:28;;;;;;;3.75;0.20;;;7.10;99.90;;;;;;5073971;28;20032;-72
2020/12/24 05:15:54;;;;;;;0.15;0.10;;;7.00;99.90;;;;;;5074939;28;20082;-70
2020/12/24 05:18:24;;;;;;;1.35;0.30;;;6.90;99.90;;;;;;5056023;28;20033;-80
2020/12/24 05:20:50;;;;;;;3.15;0.30;;;6.80;99.90;;;;;;5074729;28;20389;-71
2020/12/24 05:23:20;;;;;;;3.53;0.30;;;6.70;99.90;;;;;;5074193;28;20071;-79
2020/12/24 05:25:48;;;;;;;1.70;0.60;;;6.70;99.90;;;;;;5074321;28;20052;-78
2020/12/24 05:28:24;;;;;;;1.73;0.60;;;6.60;99.90;;;;;;5073047;28;20075;-72
2020/12/24 05:30:51;;;;;;;0.45;0.20;;;6.50;99.90;;;;;;5074052;28;20070;-71
2020/12/24 05:33:33;;;;;;;6.90;0.40;;;6.40;99.90;;;;;;5056061;28;20028;-82
2020/12/24 05:36:15;;;;;;;2.67;0.52;;;6.30;99.90;;;;;;5073982;28;20023;-71
2020/12/24 05:38:41;;;;;;;1.35;0.20;;;6.20;99.90;;;;;;5073387;28;20043;-78
2020/12/24 05:41:42;;;;;;;1.45;0.40;;;6.10;99.90;;;;;;5073797;28;20027;-70
2020/12/24 05:44:10;;;;;;;0.70;0.20;;;5.90;99.90;;;;;;4973074;28;20039;-72
2020/12/24 05:46:39;;;;;;;3.38;0.73;;;5.90;99.90;;;;;;5051510;28;20055;-67
2020/12/24 05:49:13;;;;;;;1.42;0.60;;;5.80;99.90;;;;;;5073806;28;20091;-73
2020/12/24 05:51:39;;;;;;;0.90;0.30;;;5.80;99.90;;;;;;5073126;28;20116;-69
2020/12/24 05:54:06;;;;;;;0.70;0.30;;;5.90;99.90;;;;;;5073857;28;20052;-68
2020/12/24 05:56:36;;;;;;;0.90;0.40;;;5.90;99.90;;;;;;5073191;28;20037;-65
2020/12/24 05:59:04;;;;;;;3.20;0.43;;;5.90;99.90;;;;;;5073786;28;20029;-75
2020/12/24 06:01:38;;;;;;;2.22;0.43;;;6.00;99.90;;;;;;5072968;28;20266;-71
2020/12/24 06:04:06;;;;;;;3.55;0.60;;;6.00;99.90;;;;;;5072768;28;20405;-70
2020/12/24 06:06:43;;;;;;;2.17;0.52;;;6.00;99.90;;;;;;5080396;28;20128;-73
2020/12/24 06:09:19;;;;;;;5.15;0.47;;;5.90;99.90;;;;;;5093313;28;20450;-77
2020/12/24 06:11:52;;;;;;;4.05;0.95;;;5.80;99.90;;;;;;5093458;28;20032;-78
2020/12/24 06:14:26;;;;;;;2.17;0.30;;;5.80;99.90;;;;;;5093566;28;20031;-79
2020/12/24 06:16:54;;;;;;;2.92;0.47;;;5.70;99.90;;;;;;5093691;28;20059;-72
2020/12/24 06:19:21;;;;;;;4.88;1.08;;;5.70;99.90;;;;;;5092898;28;20019;-79
2020/12/24 06:21:47;;;;;;;4.10;1.00;;;5.70;99.90;;;;;;5093408;28;20110;-68
2020/12/24 06:24:13;;;;;;;3.28;0.70;;;5.80;99.90;;;;;;5093339;28;20404;-68
2020/12/24 06:26:53;;;;;;;5.43;0.70;;;5.90;99.90;;;;;;5092465;28;20109;-65
2020/12/24 06:29:21;;;;;;;3.13;0.60;;;5.90;99.90;;;;;;5093014;28;20028;-76
2020/12/24 06:31:50;;;;;;;4.82;0.60;;;6.00;99.90;;;;;;5088917;28;20024;-75
2020/12/24 06:34:29;;;;;;;1.17;0.57;;;6.00;99.90;;;;;;5093152;28;20036;-68
2020/12/24 06:36:56;;;;;;;5.13;1.10;;;6.10;99.90;;;;;;5093360;28;20047;-73
2020/12/24 06:39:42;;;;;;;4.88;0.80;;;6.10;99.90;;;;;;5092289;28;20448;-79
2020/12/24 06:42:44;;;;;;;7.05;0.88;;;6.10;99.90;;;;;;5093403;28;20032;-69
2020/12/24 06:45:19;;;;;;;3.75;0.95;;;6.20;99.90;;;;;;5088503;28;21681;-78
2020/12/24 06:48:16;;;;;;;2.72;0.77;;;6.30;99.90;;;;;;5092601;28;20489;-75
2020/12/24 06:50:45;;;;;;;3.10;0.68;;;6.30;99.90;;;;;;5092461;28;20039;-73
2020/12/24 06:53:34;;;;;;;3.83;0.63;;;6.30;99.90;;;;;;5093066;28;20035;-67
2020/12/24 06:56:20;;;;;;;5.30;0.98;;;6.30;99.90;;;;;;5093099;28;20107;-69
2020/12/24 06:58:56;;;;;;;4.75;1.17;;;6.30;99.90;;;;;;5092692;28;20056;-73
2020/12/24 07:01:26;;;;;;;6.82;0.95;;;6.30;99.90;;;;;;5092773;28;20024;-79
2020/12/24 07:03:54;;;;;;;4.82;0.90;;;6.40;99.90;;;;;;5092649;28;20024;-73
2020/12/24 07:06:41;;;;;;;4.40;0.70;;;6.40;99.90;;;;;;5086696;28;20036;-79
2020/12/24 07:09:19;;;;;;;5.18;1.05;;;6.50;99.90;;;;;;5072065;28;20423;-73
2020/12/24 07:11:50;;;;;;;3.30;0.98;;;6.50;99.90;;;;;;5072421;28;20096;-76
2020/12/24 07:14:51;;;;;;;;;;;6.50;99.90;;;;;;5072783;28;20124;-73
2020/12/24 07:17:20;;;;;;;7.03;0.98;;;6.50;99.90;;;;;;5010397;28;19909;-75
2020/12/24 07:19:50;;;;;;;4.45;1.02;;;6.50;99.90;;;;;;5042478;28;20048;-79
2020/12/24 07:22:17;;;;;;;7.25;0.80;;;6.50;99.90;;;;;;5072126;28;20033;-73
2020/12/24 07:24:54;;;;;;;7.45;1.55;;;6.50;99.90;;;;;;5071162;28;20024;-71
2020/12/24 07:27:19;;;;;;;5.82;1.30;;;6.60;99.90;;;;;;5071991;28;20029;-73
2020/12/24 07:29:46;;;;;;;3.13;0.80;;;6.60;99.90;;;;;;5053550;28;20078;-73
2020/12/24 07:32:13;;;;;;;7.03;0.90;;;6.70;99.90;;;;;;5072812;28;20017;-66
2020/12/24 07:34:38;;;;;;;3.55;0.80;;;6.70;99.90;;;;;;5070797;28;20028;-67
2020/12/24 07:37:05;;;;;;;5.68;0.90;;;6.70;99.90;;;;;;5072198;28;20141;-74
2020/12/24 07:39:31;;;;;;;3.67;0.85;;;6.80;99.90;;;;;;5070758;28;20039;-73
2020/12/24 07:41:58;;;;;;;6.75;0.70;;;6.80;99.90;;;;;;5054154;28;20162;-66
2020/12/24 07:44:23;;;;;;;9.05;1.90;;;6.80;99.90;;;;;;5071375;28;20043;-79
2020/12/24 07:46:51;;;;;;;3.10;0.80;;;6.90;99.90;;;;;;5071486;28;20470;-73
2020/12/24 07:49:18;;;;;;;5.90;1.02;;;6.90;99.30;;;;;;5071960;28;20096;-73
2020/12/24 07:51:57;;;;;;;3.95;0.60;;;7.00;98.70;;;;;;5089232;28;20020;-74
2020/12/24 07:54:25;;;;;;;6.32;1.17;;;7.10;97.90;;;;;;5091716;28;20111;-77
2020/12/24 07:56:52;;;;;;;5.93;1.10;;;7.10;97.30;;;;;;5091256;28;20020;-71
2020/12/24 07:59:18;;;;;;;11.85;1.00;;;7.20;96.30;;;;;;5070771;28;20039;-73
2020/12/24 08:01:44;;;;;;;5.97;0.82;;;7.30;94.30;;;;;;5087762;28;20025;-73
2020/12/24 08:04:10;;;;;;;5.72;1.00;;;7.30;93.60;;;;;;5091782;28;20033;-72
2020/12/24 08:06:37;;;;;;;5.72;1.10;;;7.40;93.80;;;;;;5090421;28;20461;-73
2020/12/24 08:09:14;;;;;;;11.63;1.30;;;7.40;94.50;;;;;;5080386;28;20028;-72
2020/12/24 08:11:42;;;;;;;5.90;1.23;;;7.50;93.50;;;;;;5061897;28;20043;-73
2020/12/24 08:14:08;;;;;;;5.47;1.20;;;7.50;92.70;;;;;;5084601;28;20530;-72
2020/12/24 08:16:39;;;;;;;4.53;0.82;;;7.60;92.30;;;;;;5080787;28;20531;-73
2020/12/24 08:19:34;;;;;;;4.57;0.85;;;7.60;92.00;;;;;;5063857;28;20417;-73
2020/12/24 08:22:27;;;;;;;7.30;1.15;;;7.70;90.80;;;;;;5082106;28;20082;-74
2020/12/24 08:24:54;;;;;;;5.15;1.05;;;7.70;90.60;;;;;;5080837;28;20028;-73
2020/12/24 08:27:20;;;;;;;5.55;0.75;;;7.70;90.30;;;;;;5078637;28;20032;-73
2020/12/24 08:29:47;;;;;;;6.80;1.13;;;7.70;90.50;;;;;;5079430;28;20453;-75
2020/12/24 08:32:14;;;;;;;5.85;1.00;;;7.70;90.30;;;;;;5083413;28;20027;-70
2020/12/24 08:34:40;;;;;;;3.95;0.80;;;7.70;89.70;;;;;;5078683;28;20017;-74
2020/12/24 08:37:06;;;;;;;3.90;0.85;;;7.70;90.30;;;;;;5062889;28;20016;-70
2020/12/24 08:39:32;;;;;;;5.50;0.80;;;7.70;90.80;;;;;;5080024;28;20021;-76
2020/12/24 08:42:03;;;;;;;4.15;0.70;;;7.70;90.50;;;;;;5079039;28;20059;-74
2020/12/24 08:44:30;;;;;;;7.00;0.88;;;7.70;90.70;;;;;;5079826;28;20032;-78
2020/12/24 08:47:11;;;;;;;4.82;0.60;;;7.70;91.10;;;;;;5079311;28;20040;-75
2020/12/24 08:49:45;;;;;;;3.75;0.63;;;7.60;90.90;;;;;;5079744;28;20029;-75
2020/12/24 08:52:20;;;;;;;2.70;0.57;;;7.60;91.00;;;;;;5083122;28;20486;-75
2020/12/24 08:55:04;;;;;;;3.70;0.60;;;7.60;91.30;;;;;;5090532;28;20177;-76
2020/12/24 08:57:31;;;;;;;2.35;0.70;;;7.60;91.40;;;;;;5090427;28;20032;-81
2020/12/24 08:59:58;;;;;;;1.88;0.50;;;7.50;91.40;;;;;;5091539;28;20153;-74
2020/12/24 09:02:29;;;;;;;0.93;0.40;;;7.50;91.40;;;;;;5091420;28;20425;-75
2020/12/24 09:04:57;;;;;;;3.58;0.35;;;7.50;91.90;;;;;;5094962;28;20043;-70
2020/12/24 09:07:43;;;;;;;2.33;0.60;;;7.50;91.90;;;;;;5094796;28;20024;-76
2020/12/24 09:10:12;;;;;;;2.63;0.52;;;7.60;92.10;;;;;;5094406;28;20032;-74
2020/12/24 09:12:40;;;;;;;2.92;0.40;;;7.60;91.50;;;;;;5093989;28;20027;-75
2020/12/24 09:15:15;;;;;;;1.85;0.63;;;7.60;91.60;;;;;;5094588;28;20035;-75
2020/12/24 09:17:50;;;;;;;2.78;0.70;;;7.60;92.20;;;;;;5093958;28;20036;-76
2020/12/24 09:20:22;;;;;;;3.67;0.50;;;7.60;92.30;;;;;;5090944;28;20035;-79
2020/12/24 09:22:58;;;;;;;2.58;0.90;;;7.60;92.00;;;;;;5071667;28;20103;-76
2020/12/24 09:25:43;;;;;;;7.38;0.60;;;7.60;92.50;;;;;;5072628;28;20060;-76
2020/12/24 09:28:26;;;;;;;3.00;0.43;;;7.60;91.80;;;;;;5073926;28;20037;-77
2020/12/24 09:31:01;;;;;;;7.85;0.77;;;7.70;91.80;;;;;;5072412;28;20078;-77
2020/12/24 09:33:28;;;;;;;2.03;0.32;;;7.70;91.20;;;;;;5103259;28;20084;-75
2020/12/24 09:35:54;;;;;;;3.58;0.70;;;7.70;90.80;;;;;;5115955;28;20107;-75
2020/12/24 09:38:20;;;;;;;1.95;0.63;;;7.80;90.90;;;;;;5097110;28;20110;-78
2020/12/24 09:40:46;;;;;;;1.33;0.60;;;7.80;90.30;;;;;;5081781;28;20024;-77
2020/12/24 09:43:12;;;;;;;4.43;0.70;;;7.80;90.50;;;;;;5074794;28;20025;-80
2020/12/24 09:45:38;;;;;;;3.60;0.30;;;7.80;90.90;;;;;;5093480;28;20127;-81
2020/12/24 09:48:05;;;;;;;2.17;0.40;;;7.80;90.90;;;;;;5106438;28;20040;-72
2020/12/24 09:50:37;;;;;;;1.90;0.60;;;7.80;90.10;;;;;;5110932;28;20106;-79
2020/12/24 09:53:04;;;;;;;2.63;0.52;;;7.90;90.60;;;;;;5077380;28;20021;-76
2020/12/24 09:55:30;;;;;;;0.85;0.30;;;7.90;89.20;;;;;;5073205;28;20504;-81
2020/12/24 09:57:56;;;;;;;1.27;0.30;;;7.90;88.30;;;;;;5073315;28;20485;-71
2020/12/24 10:00:24;;;;;;;3.88;0.57;;;7.90;90.00;;;;;;5072292;28;20075;-77
2020/12/24 10:02:50;;;;;;;3.00;0.43;;;8.00;89.70;;;;;;5072046;28;20470;-74
2020/12/24 10:05:16;;;;;;;1.45;0.50;;;8.00;88.90;;;;;;5073642;28;20078;-78
2020/12/24 10:07:42;;;;;;;7.50;0.70;;;8.10;88.00;;;;;;5089462;28;20101;-77
2020/12/24 10:10:07;;;;;;;8.07;0.93;;;8.10;87.40;;;;;;5093286;28;20024;-77
2020/12/24 10:12:33;;;;;;;2.63;0.40;;;8.20;87.60;;;;;;5075922;28;20025;-75
2020/12/24 10:14:59;;;;;;;4.22;0.50;;;8.20;86.80;;;;;;5072710;28;20029;-77
2020/12/24 10:17:25;;;;;;;2.10;0.75;;;8.30;86.70;;;;;;5073571;28;20040;-72
2020/12/24 10:19:56;;;;;;;3.08;0.80;;;8.30;87.50;;;;;;5072290;28;20136;-74
2020/12/24 10:22:22;;;;;;;;;;;8.30;87.40;;;;;;5073727;28;20040;-80
2020/12/24 10:24:48;;;;;;;6.95;1.70;;;8.50;85.90;;;;;;5072091;28;19976;-77
2020/12/24 10:27:14;;;;;;;2.75;0.63;;;8.50;85.10;;;;;;5072569;28;20033;-77
2020/12/24 10:29:40;;;;;;;3.35;0.70;;;8.50;85.40;;;;;;5074703;28;20021;-78
2020/12/24 10:32:07;;;;;;;3.22;0.40;;;8.60;84.10;;;;;;5073052;28;20462;-72
2020/12/24 10:34:34;;;;;;;2.97;0.75;;;8.60;85.70;;;;;;5072062;28;20056;-77
2020/12/24 10:37:03;;;;;;;2.50;0.70;;;8.80;84.00;;;;;;5073201;28;20024;-72
2020/12/24 10:39:30;;;;;;;3.13;0.45;;;8.80;83.80;;;;;;5073775;28;20021;-80
2020/12/24 10:41:56;;;;;;;3.80;0.73;;;8.80;83.70;;;;;;5073189;28;20616;-73
2020/12/24 10:44:23;;;;;;;2.75;0.50;;;8.80;84.20;;;;;;5072565;28;20078;-77
2020/12/24 10:46:56;;;;;;;1.88;0.47;;;8.80;85.20;;;;;;5071728;28;20039;-80
2020/12/24 10:49:22;;;;;;;2.17;0.40;;;8.70;84.80;;;;;;5072190;28;20040;-78
2020/12/24 10:51:48;;;;;;;1.92;0.47;;;8.80;85.20;;;;;;5071933;28;20032;-88
2020/12/24 10:54:14;;;;;;;5.20;0.60;;;8.70;84.80;;;;;;5055067;28;20024;-80
2020/12/24 10:56:40;;;;;;;1.88;0.38;;;8.70;85.30;;;;;;5071797;28;20388;-80
2020/12/24 10:59:05;;;;;;;1.58;0.30;;;8.60;83.10;;;;;;5054573;28;20450;-80
2020/12/24 11:01:31;;;;;;;1.27;0.52;;;8.60;84.40;;;;;;5054180;28;20029;-77
2020/12/24 11:03:56;;;;;;;0.65;0.30;;;8.50;85.20;;;;;;5071926;28;20021;-73
2020/12/24 11:06:24;;;;;;;2.95;0.40;;;8.50;84.10;;;;;;5078667;28;20056;-70
2020/12/24 11:08:51;;;;;;;4.00;0.50;;;8.60;85.20;;;;;;5091999;28;20161;-72
2020/12/24 11:11:18;;;;;;;1.13;0.35;;;8.60;85.20;;;;;;5092892;28;20020;-73
2020/12/24 11:13:45;;;;;;;2.22;0.30;;;8.60;85.20;;;;;;5091440;28;20103;-73
2020/12/24 11:16:19;;;;;;;1.38;0.40;;;8.50;84.90;;;;;;5092858;28;20052;-73
2020/12/24 11:18:45;;;;;;;1.58;0.35;;;8.50;85.60;;;;;;5092182;28;20062;-72
2020/12/24 11:21:10;;;;;;;1.85;0.32;;;8.50;84.50;;;;;;5092365;28;20055;-79
2020/12/24 11:23:36;;;;;;;1.55;0.30;;;8.40;85.00;;;;;;5091703;28;20032;-83
2020/12/24 11:26:02;;;;;;;1.35;0.40;;;8.40;85.40;;;;;;5074594;28;20480;-80
2020/12/24 11:28:27;;;;;;;1.25;0.30;;;8.30;85.50;;;;;;5091904;28;20469;-75
2020/12/24 11:30:53;;;;;;;1.00;0.13;;;8.40;86.70;;;;;;5091555;28;20024;-74
2020/12/24 11:33:19;;;;;;;2.63;0.20;;;8.30;85.10;;;;;;5072576;28;20020;-74
2020/12/24 11:35:45;;;;;;;1.10;0.32;;;8.40;85.50;;;;;;5071289;28;20441;-73
2020/12/24 11:38:11;;;;;;;0.90;0.20;;;8.40;85.10;;;;;;5071976;28;20032;-73
2020/12/24 11:40:36;;;;;;;1.75;0.40;;;8.50;84.60;;;;;;5071193;28;20032;-73
2020/12/24 11:43:02;;;;;;;1.25;0.30;;;8.50;84.70;;;;;;5071958;28;20410;-72
2020/12/24 11:45:28;;;;;;;1.55;0.40;;;8.50;84.10;;;;;;5071456;28;20501;-73
2020/12/24 11:47:53;;;;;;;2.08;0.30;;;8.50;84.70;;;;;;5070961;28;20712;-69
2020/12/24 11:50:19;;;;;;;1.02;0.25;;;8.50;84.30;;;;;;5071747;28;20378;-77
2020/12/24 11:52:45;;;;;;;1.95;0.20;;;8.60;84.20;;;;;;5071350;28;20104;-75
2020/12/24 11:55:10;;;;;;;0.20;0.20;;;8.70;83.90;;;;;;5071577;28;20021;-74
2020/12/24 11:57:37;;;;;;;3.08;0.40;;;8.70;83.80;;;;;;5070839;28;20450;-75
2020/12/24 12:00:07;;;;;;;1.10;0.30;;;8.80;82.80;;;;;;5071641;28;20048;-71
2020/12/24 12:02:33;;;;;;;1.75;0.20;;;8.80;82.30;;;;;;5070921;28;20092;-76
2020/12/24 12:04:59;;;;;;;0.68;0.32;;;8.80;82.30;;;;;;5071529;28;20029;-73
2020/12/24 12:07:25;;;;;;;2.97;0.50;;;8.90;82.00;;;;;;5086810;28;20493;-73
2020/12/24 12:09:50;;;;;;;1.05;0.30;;;8.90;83.10;;;;;;5072544;28;20407;-71
2020/12/24 12:12:16;;;;;;;1.35;0.30;;;9.00;82.00;;;;;;5092180;28;20458;-70
2020/12/24 12:14:42;;;;;;;0.90;0.30;;;9.00;81.00;;;;;;5091731;28;20020;-73
2020/12/24 12:17:12;;;;;;;1.38;0.28;;;9.10;81.10;;;;;;5091549;28;20544;-71
2020/12/24 12:19:38;;;;;;;2.07;0.40;;;9.00;81.10;;;;;;5091259;28;20035;-73
2020/12/24 12:22:05;;;;;;;2.05;0.40;;;9.00;81.40;;;;;;5091635;28;20261;-73
2020/12/24 12:24:30;;;;;;;1.63;0.50;;;9.10;81.50;;;;;;5085849;28;20028;-75
2020/12/24 12:26:56;;;;;;;1.15;0.43;;;9.00;80.90;;;;;;5070707;28;20044;-70
2020/12/24 12:29:22;;;;;;;3.03;0.32;;;9.00;80.90;;;;;;5071494;28;20377;-83
2020/12/24 12:31:47;;;;;;;0.85;0.25;;;9.00;80.90;;;;;;5070512;28;20039;-71
2020/12/24 12:34:13;;;;;;;1.30;0.38;;;9.00;80.90;;;;;;5071483;28;20102;-72
2020/12/24 12:36:39;;;;;;;1.55;0.45;;;9.00;81.50;;;;;;5070773;28;20367;-73
2020/12/24 12:39:04;;;;;;;0.98;0.22;;;9.10;81.60;;;;;;5075076;28;20048;-68
2020/12/24 12:41:30;;;;;;;0.32;0.25;;;9.10;80.70;;;;;;5075371;28;20029;-72
2020/12/24 12:43:56;;;;;;;1.38;0.40;;;9.20;80.30;;;;;;5074715;28;20039;-70
2020/12/24 12:46:26;;;;;;;1.75;0.30;;;9.10;80.00;;;;;;5087792;28;20081;-72
2020/12/24 12:48:52;;;;;;;1.20;0.52;;;9.20;80.50;;;;;;5094570;28;20491;-71
2020/12/24 12:51:19;;;;;;;0.68;0.40;;;9.20;80.70;;;;;;5076757;28;20039;-71
2020/12/24 12:53:44;;;;;;;0.43;0.22;;;9.10;80.70;;;;;;5076305;28;20065;-72
2020/12/24 12:56:11;;;;;;;0.60;0.40;;;9.10;80.60;;;;;;5098042;28;20028;-70
2020/12/24 12:58:39;;;;;;;0.70;0.30;;;9.00;80.60;;;;;;5096680;28;20020;-71
2020/12/24 13:01:04;;;;;;;0.50;0.20;;;9.00;81.60;;;;;;5078664;28;20077;-71
2020/12/24 13:03:30;;;;;;;0.38;0.32;;;8.90;81.50;;;;;;5102257;28;20028;-71